Time;durP1;ratioP1;P1;durP2;ratioP2;P2;SDS_P1;SDS_P2;PMS_P1;PMS_P2;Temp;Humidity;BMP_temperature;BMP_pressure;BME280_temperature;BME280_humidity;BME280_pressure;Samples;Min_cycle;Max_cycle;Signal;HPM_P1;HPM_P2
2022/01/10 00:01:39;;;;;;;1.30;0.90;;;17.70;59.50;;;;;;5089221;28;20028;-53
2022/01/10 00:04:05;;;;;;;2.17;1.30;;;17.70;59.60;;;;;;5105965;28;20075;-50
2022/01/10 00:06:31;;;;;;;1.88;1.27;;;17.60;59.60;;;;;;5105986;28;20087;-52
2022/01/10 00:08:58;;;;;;;2.08;1.27;;;17.70;59.60;;;;;;5105969;28;20066;-55
2022/01/10 00:11:24;;;;;;;2.38;1.58;;;17.60;59.60;;;;;;5105692;28;20055;-53
2022/01/10 00:13:51;;;;;;;2.22;1.33;;;17.60;59.60;;;;;;5105692;28;20028;-53
2022/01/10 00:16:17;;;;;;;1.98;1.27;;;17.60;59.60;;;;;;5105868;28;20028;-54
2022/01/10 00:18:43;;;;;;;1.38;1.20;;;17.60;59.60;;;;;;5105809;28;20032;-54
2022/01/10 00:21:10;;;;;;;2.05;1.27;;;17.60;59.60;;;;;;5105748;28;20028;-53
2022/01/10 00:23:36;;;;;;;2.47;1.20;;;17.60;59.60;;;;;;5105745;28;20541;-52
2022/01/10 00:26:02;;;;;;;1.52;1.17;;;17.60;59.40;;;;;;5105573;28;20052;-52
2022/01/10 00:28:28;;;;;;;1.45;1.10;;;17.70;60.10;;;;;;5101067;28;20028;-53
2022/01/10 00:30:54;;;;;;;1.52;1.10;;;17.70;59.90;;;;;;5085216;28;20059;-53
2022/01/10 00:33:20;;;;;;;1.90;1.20;;;17.70;59.70;;;;;;5085531;28;20048;-52
2022/01/10 00:35:47;;;;;;;1.73;1.20;;;17.70;59.70;;;;;;5085013;28;20025;-54
2022/01/10 00:38:13;;;;;;;1.90;1.27;;;17.70;59.70;;;;;;5084405;28;20036;-54
2022/01/10 00:40:40;;;;;;;1.83;1.13;;;17.70;59.90;;;;;;5095646;28;20036;-55
2022/01/10 00:43:08;;;;;;;1.65;1.00;;;17.70;60.00;;;;;;5105058;28;20029;-53
2022/01/10 00:45:34;;;;;;;1.08;0.93;;;17.70;60.00;;;;;;5104972;28;20039;-55
2022/01/10 00:48:00;;;;;;;1.25;0.88;;;17.70;59.90;;;;;;5105538;28;20028;-53
2022/01/10 00:50:27;;;;;;;1.30;0.90;;;17.70;60.00;;;;;;5105099;28;20808;-53
2022/01/10 00:52:54;;;;;;;1.40;0.98;;;17.70;60.10;;;;;;5105338;28;20055;-55
2022/01/10 00:55:20;;;;;;;1.15;0.80;;;17.70;60.00;;;;;;5104990;28;20051;-52
2022/01/10 00:57:46;;;;;;;1.73;1.33;;;17.60;60.00;;;;;;5104983;28;20028;-54
2022/01/10 01:00:13;;;;;;;1.45;0.80;;;17.70;60.00;;;;;;5085284;28;20094;-54
2022/01/10 01:02:40;;;;;;;;;;;17.60;60.00;;;;;;5085047;28;20040;-53
2022/01/10 01:05:09;;;;;;;1.27;1.02;;;17.60;60.00;;;;;;5084397;28;19966;-52
2022/01/10 01:07:35;;;;;;;1.50;1.00;;;17.60;60.60;;;;;;5083406;28;20084;-53
2022/01/10 01:11:00;;;;;;;1.63;1.17;;;17.60;59.90;;;;;;5090650;28;20060;-52
2022/01/10 01:12:56;;;;;;;1.35;0.95;;;17.60;60.00;;;;;;5098243;28;20094;-51
2022/01/10 01:15:30;;;;;;;1.50;0.85;;;17.60;59.90;;;;;;5104601;28;20032;-54
2022/01/10 01:18:13;;;;;;;1.17;0.80;;;17.60;60.00;;;;;;5104487;28;20024;-51
2022/01/10 01:25:51;;;;;;;1.25;0.82;;;17.60;59.90;;;;;;5104474;28;20093;-54
2022/01/10 01:28:17;;;;;;;1.20;1.00;;;17.70;60.20;;;;;;5104025;28;20028;-54
2022/01/10 01:30:43;;;;;;;1.45;0.90;;;17.70;60.10;;;;;;5104519;28;20036;-49
2022/01/10 01:33:12;;;;;;;2.08;0.93;;;17.70;60.10;;;;;;5104332;28;20051;-54
2022/01/10 01:35:39;;;;;;;0.82;0.70;;;17.70;60.60;;;;;;5103861;28;20020;-53
2022/01/10 01:38:07;;;;;;;1.25;0.70;;;17.70;60.50;;;;;;5104513;28;20127;-53
2022/01/10 01:40:34;;;;;;;1.48;0.90;;;17.70;60.50;;;;;;5103948;28;20035;-51
2022/01/10 01:43:00;;;;;;;;;;;17.70;60.50;;;;;;5104375;28;20055;-52
2022/01/10 01:45:44;;;;;;;1.23;0.90;;;17.70;60.60;;;;;;5119500;28;19904;-52
2022/01/10 01:48:10;;;;;;;1.70;0.95;;;17.70;60.50;;;;;;5103903;28;20041;-53
2022/01/10 01:50:36;;;;;;;1.33;0.90;;;17.70;60.30;;;;;;5102944;28;20035;-51
2022/01/10 01:53:03;;;;;;;0.82;0.63;;;17.70;60.30;;;;;;5103983;28;20030;-49
2022/01/10 01:55:30;;;;;;;0.93;0.65;;;17.60;60.30;;;;;;5104285;28;20052;-54
2022/01/10 01:57:56;;;;;;;1.42;0.60;;;17.70;60.30;;;;;;5102841;28;20461;-53
2022/01/10 02:00:23;;;;;;;1.30;0.75;;;17.60;60.30;;;;;;5083380;28;20027;-54
2022/01/10 02:02:52;;;;;;;1.08;0.80;;;17.60;60.30;;;;;;5083247;28;20035;-54
2022/01/10 02:05:18;;;;;;;1.27;0.80;;;17.60;60.30;;;;;;5083588;28;20033;-50
2022/01/10 02:07:44;;;;;;;1.05;0.80;;;17.60;60.30;;;;;;5083295;28;20801;-51
2022/01/10 02:10:11;;;;;;;1.40;0.80;;;17.60;60.20;;;;;;5083337;28;20143;-53
2022/01/10 02:12:37;;;;;;;1.52;0.85;;;17.60;60.20;;;;;;5102323;28;20020;-50
2022/01/10 02:15:04;;;;;;;1.15;0.77;;;17.60;60.20;;;;;;5103650;28;20028;-51
2022/01/10 02:17:36;;;;;;;1.20;0.60;;;17.60;60.10;;;;;;5103494;28;20020;-50
2022/01/10 02:20:03;;;;;;;0.80;0.73;;;17.70;60.40;;;;;;5103276;28;20115;-51
2022/01/10 02:22:29;;;;;;;1.10;0.52;;;17.70;60.40;;;;;;5103504;28;20045;-51
2022/01/10 02:24:55;;;;;;;1.55;0.90;;;17.70;60.50;;;;;;5103333;28;20039;-55
2022/01/10 02:27:22;;;;;;;1.50;0.90;;;17.70;60.80;;;;;;5103022;28;20032;-54
2022/01/10 02:29:49;;;;;;;0.80;0.60;;;17.70;60.80;;;;;;5087495;28;20106;-51
2022/01/10 02:32:15;;;;;;;1.00;0.87;;;17.70;60.70;;;;;;5082998;28;20039;-54
2022/01/10 02:34:41;;;;;;;0.70;0.70;;;17.70;60.80;;;;;;5083402;28;20024;-49
2022/01/10 02:37:07;;;;;;;1.00;0.70;;;17.70;60.80;;;;;;5082752;28;20048;-50
2022/01/10 02:39:34;;;;;;;0.80;0.50;;;17.70;60.70;;;;;;5084523;28;20025;-53
2022/01/10 02:42:00;;;;;;;1.88;0.80;;;17.70;60.60;;;;;;5103064;28;20028;-51
2022/01/10 02:44:28;;;;;;;0.75;0.63;;;17.70;60.70;;;;;;5102990;28;20032;-51
2022/01/10 02:46:54;;;;;;;1.35;0.80;;;17.70;60.70;;;;;;5102986;28;20019;-50
2022/01/10 02:49:27;;;;;;;1.20;0.70;;;17.70;60.60;;;;;;5103163;28;20028;-50
2022/01/10 02:51:55;;;;;;;1.20;0.60;;;17.70;60.60;;;;;;5103051;28;20058;-54
2022/01/10 02:54:24;;;;;;;1.45;0.63;;;17.60;60.60;;;;;;5102898;28;20041;-51
2022/01/10 02:56:55;;;;;;;1.00;0.73;;;17.60;60.60;;;;;;5102690;28;20032;-53
2022/01/10 02:59:22;;;;;;;0.68;0.50;;;17.60;60.70;;;;;;5090256;28;20367;-52
2022/01/10 03:01:48;;;;;;;0.75;0.60;;;17.60;60.60;;;;;;5082592;28;20498;-54
2022/01/10 03:04:17;;;;;;;0.70;0.60;;;17.60;60.60;;;;;;5082658;28;20069;-55
2022/01/10 03:06:44;;;;;;;0.82;0.60;;;17.60;60.60;;;;;;5082632;28;20059;-55
2022/01/10 03:09:11;;;;;;;1.25;0.60;;;17.60;60.60;;;;;;5081339;28;20066;-54
2022/01/10 03:11:38;;;;;;;0.70;0.40;;;17.60;60.60;;;;;;5094343;28;20032;-51
2022/01/10 03:14:04;;;;;;;;;;;17.70;60.90;;;;;;5103206;28;20306;-54
2022/01/10 03:16:30;;;;;;;0.60;0.60;;;17.70;60.80;;;;;;5102296;28;19908;-55
2022/01/10 03:18:56;;;;;;;2.05;0.60;;;17.70;60.80;;;;;;5102418;28;20065;-55
2022/01/10 03:21:22;;;;;;;0.90;0.70;;;17.70;61.90;;;;;;5102613;28;20020;-53
2022/01/10 03:23:48;;;;;;;0.82;0.50;;;17.70;61.20;;;;;;5102275;28;20492;-53
2022/01/10 03:26:15;;;;;;;0.60;0.50;;;17.70;61.40;;;;;;5101478;28;20031;-54
2022/01/10 03:28:41;;;;;;;0.50;0.50;;;17.70;61.20;;;;;;5095773;28;20029;-55
2022/01/10 03:31:07;;;;;;;0.50;0.50;;;17.70;61.30;;;;;;5082504;28;20084;-55
2022/01/10 03:33:33;;;;;;;1.00;0.60;;;17.70;61.20;;;;;;5082457;28;20063;-54
2022/01/10 03:35:59;;;;;;;1.08;0.60;;;17.70;61.10;;;;;;5098618;28;20040;-54
2022/01/10 03:38:25;;;;;;;1.50;0.65;;;17.70;61.10;;;;;;5102757;28;20035;-53
2022/01/10 03:40:52;;;;;;;0.80;0.68;;;17.70;61.10;;;;;;5102655;28;20032;-54
2022/01/10 03:43:18;;;;;;;0.88;0.57;;;17.60;61.00;;;;;;5101884;28;20040;-53
2022/01/10 03:45:44;;;;;;;0.52;0.40;;;17.60;61.10;;;;;;5102809;28;20039;-55
2022/01/10 03:48:10;;;;;;;0.57;0.57;;;17.60;61.00;;;;;;5102339;28;20020;-54
2022/01/10 03:50:36;;;;;;;0.55;0.50;;;17.60;61.00;;;;;;5102806;28;20078;-51
2022/01/10 03:53:03;;;;;;;1.02;0.70;;;17.60;60.80;;;;;;5102498;28;20016;-49
2022/01/10 03:55:29;;;;;;;0.88;0.60;;;17.70;61.00;;;;;;5102637;28;20028;-53
2022/01/10 03:57:55;;;;;;;1.10;0.75;;;17.70;61.10;;;;;;5101399;28;20032;-55
2022/01/10 04:00:22;;;;;;;0.63;0.52;;;17.70;61.10;;;;;;5082305;28;20034;-55
2022/01/10 04:02:56;;;;;;;0.55;0.45;;;17.70;61.30;;;;;;5082272;28;20035;-52
2022/01/10 04:05:23;;;;;;;1.33;0.60;;;17.70;61.30;;;;;;5082433;28;20037;-54
2022/01/10 04:07:49;;;;;;;0.70;0.50;;;17.70;61.50;;;;;;5082097;28;20029;-52
2022/01/10 04:10:15;;;;;;;0.70;0.60;;;17.70;61.50;;;;;;5095808;28;20060;-52
2022/01/10 04:12:41;;;;;;;0.80;0.50;;;17.70;61.40;;;;;;5101509;28;20020;-53
2022/01/10 04:15:08;;;;;;;1.33;0.50;;;17.70;61.40;;;;;;5105860;28;20031;-53
2022/01/10 04:17:35;;;;;;;1.67;0.50;;;17.70;61.40;;;;;;5106046;28;20020;-52
2022/01/10 04:20:02;;;;;;;1.23;0.55;;;17.70;61.40;;;;;;5104287;28;20130;-55
2022/01/10 04:22:28;;;;;;;0.63;0.57;;;17.70;61.30;;;;;;5105909;28;20027;-53
2022/01/10 04:24:54;;;;;;;0.93;0.60;;;17.70;61.30;;;;;;5105798;28;20055;-53
2022/01/10 04:27:20;;;;;;;0.82;0.70;;;17.70;61.30;;;;;;5106092;28;20024;-55
2022/01/10 04:29:46;;;;;;;1.10;0.45;;;17.60;61.40;;;;;;5089976;28;20028;-54
2022/01/10 04:32:12;;;;;;;0.82;0.40;;;17.60;61.30;;;;;;5085297;28;20025;-51
2022/01/10 04:34:39;;;;;;;0.60;0.50;;;17.70;61.30;;;;;;5085560;28;20025;-54
2022/01/10 04:37:06;;;;;;;1.40;0.70;;;17.60;61.20;;;;;;5085547;28;20028;-51
2022/01/10 04:39:33;;;;;;;1.40;0.60;;;17.60;61.10;;;;;;5085192;28;20096;-52
2022/01/10 04:41:59;;;;;;;0.90;0.60;;;17.70;61.30;;;;;;5100053;28;20481;-53
2022/01/10 04:44:25;;;;;;;1.08;0.70;;;17.70;61.30;;;;;;5105202;28;20051;-53
2022/01/10 04:46:51;;;;;;;0.60;0.50;;;17.70;61.50;;;;;;5105476;28;20030;-53
2022/01/10 04:49:27;;;;;;;0.85;0.60;;;17.70;61.60;;;;;;5105482;28;20067;-54
2022/01/10 04:51:54;;;;;;;0.55;0.40;;;17.70;61.70;;;;;;5105360;28;20053;-55
2022/01/10 04:54:20;;;;;;;0.40;0.40;;;17.70;61.70;;;;;;5105266;28;20092;-54
2022/01/10 04:56:46;;;;;;;1.02;0.50;;;17.70;61.60;;;;;;5105294;28;20036;-54
2022/01/10 04:59:12;;;;;;;0.80;0.45;;;17.70;61.60;;;;;;5093233;28;20040;-54
2022/01/10 05:01:39;;;;;;;0.40;0.40;;;17.70;61.60;;;;;;5085094;28;20024;-53
2022/01/10 05:04:05;;;;;;;0.50;0.47;;;17.70;61.60;;;;;;5084833;28;20036;-55
2022/01/10 05:06:31;;;;;;;0.70;0.50;;;17.70;61.50;;;;;;5084966;28;20044;-54
2022/01/10 05:08:57;;;;;;;0.57;0.50;;;17.70;61.50;;;;;;5084706;28;20067;-54
2022/01/10 05:11:23;;;;;;;0.60;0.47;;;17.70;61.50;;;;;;5094470;28;20052;-54
2022/01/10 05:13:49;;;;;;;1.77;0.60;;;17.60;61.50;;;;;;5104725;28;20028;-51
2022/01/10 05:16:16;;;;;;;0.93;0.50;;;17.60;61.50;;;;;;5105012;28;20052;-53
2022/01/10 05:18:42;;;;;;;0.70;0.50;;;17.60;61.50;;;;;;5104948;28;20028;-53
2022/01/10 05:21:09;;;;;;;1.95;0.43;;;17.60;62.10;;;;;;5104809;28;20095;-52
2022/01/10 05:23:35;;;;;;;0.40;0.40;;;17.60;61.40;;;;;;5104599;28;20032;-54
2022/01/10 05:26:01;;;;;;;0.50;0.30;;;17.60;61.40;;;;;;5104199;28;20132;-54
2022/01/10 05:28:27;;;;;;;0.50;0.40;;;17.60;61.30;;;;;;5099784;28;20080;-51
2022/01/10 05:30:55;;;;;;;0.60;0.40;;;17.60;61.40;;;;;;5084090;28;20092;-55
2022/01/10 05:33:21;;;;;;;0.40;0.35;;;17.70;61.50;;;;;;5084364;28;20087;-55
2022/01/10 05:35:47;;;;;;;0.85;0.30;;;17.70;61.60;;;;;;5101568;28;20048;-54
2022/01/10 05:38:13;;;;;;;0.40;0.40;;;17.70;61.70;;;;;;5104287;28;20028;-55
2022/01/10 05:40:40;;;;;;;0.80;0.43;;;17.70;61.90;;;;;;5104296;28;20024;-51
2022/01/10 05:43:06;;;;;;;1.07;0.50;;;17.70;61.90;;;;;;5104205;28;20071;-53
2022/01/10 05:45:32;;;;;;;0.38;0.38;;;17.70;61.90;;;;;;5104300;28;20537;-52
2022/01/10 05:48:07;;;;;;;0.40;0.35;;;17.60;61.80;;;;;;5104253;28;20024;-54
2022/01/10 05:50:35;;;;;;;0.43;0.30;;;17.70;61.80;;;;;;5103980;28;20036;-53
2022/01/10 05:53:01;;;;;;;0.40;0.40;;;17.60;61.80;;;;;;5104209;28;20054;-54
2022/01/10 05:55:27;;;;;;;0.40;0.32;;;17.60;61.80;;;;;;5103993;28;20057;-55
2022/01/10 05:57:53;;;;;;;1.65;0.40;;;17.60;61.80;;;;;;5103537;28;20058;-53
2022/01/10 06:00:20;;;;;;;0.40;0.40;;;17.60;61.70;;;;;;5103536;28;20016;-51
2022/01/10 06:02:46;;;;;;;0.47;0.30;;;17.60;61.70;;;;;;5103833;28;20032;-51
2022/01/10 06:05:12;;;;;;;0.30;0.30;;;17.60;61.60;;;;;;5103840;28;20534;-55
2022/01/10 06:07:38;;;;;;;0.60;0.30;;;17.60;61.60;;;;;;5103821;28;20031;-54
2022/01/10 06:10:05;;;;;;;0.30;0.30;;;17.70;61.70;;;;;;5103789;28;20105;-52
2022/01/10 06:12:31;;;;;;;0.43;0.40;;;17.70;61.80;;;;;;5103425;28;20115;-54
2022/01/10 06:14:57;;;;;;;0.40;0.30;;;17.70;61.80;;;;;;5103692;28;20056;-53
2022/01/10 06:17:23;;;;;;;0.45;0.25;;;17.70;62.00;;;;;;5103313;28;20407;-55
2022/01/10 06:19:49;;;;;;;0.20;0.20;;;17.70;62.00;;;;;;5103820;28;20035;-54
2022/01/10 06:22:15;;;;;;;0.60;0.30;;;17.70;61.90;;;;;;5103536;28;20028;-54
2022/01/10 06:24:41;;;;;;;1.00;0.30;;;17.60;61.90;;;;;;5103619;28;20847;-56
2022/01/10 06:27:08;;;;;;;1.20;0.30;;;17.60;61.90;;;;;;5103566;28;20085;-53
2022/01/10 06:29:34;;;;;;;0.30;0.30;;;17.60;62.00;;;;;;5089807;28;20058;-55
2022/01/10 06:32:00;;;;;;;0.50;0.30;;;17.60;61.90;;;;;;5083162;28;20651;-54
2022/01/10 06:34:26;;;;;;;0.30;0.30;;;17.60;61.90;;;;;;5083270;28;20093;-56
2022/01/10 06:36:53;;;;;;;1.33;0.30;;;17.60;61.90;;;;;;5082759;28;20024;-54
2022/01/10 06:39:19;;;;;;;0.50;0.38;;;17.60;61.80;;;;;;5083111;28;20035;-54
2022/01/10 06:41:45;;;;;;;0.20;0.20;;;17.60;61.80;;;;;;5095586;28;20035;-55
2022/01/10 06:44:11;;;;;;;0.63;0.30;;;17.50;61.70;;;;;;5103198;28;20043;-54
2022/01/10 06:46:37;;;;;;;0.50;0.20;;;17.60;61.70;;;;;;5103171;28;20020;-56
2022/01/10 06:49:03;;;;;;;0.40;0.30;;;17.50;61.60;;;;;;5103304;28;20063;-54
2022/01/10 06:51:29;;;;;;;0.35;0.22;;;17.50;61.50;;;;;;5103181;28;20119;-53
2022/01/10 06:53:55;;;;;;;0.22;0.20;;;17.60;61.70;;;;;;5103099;28;20055;-52
2022/01/10 06:56:21;;;;;;;0.30;0.20;;;17.60;61.70;;;;;;5103019;28;20158;-53
2022/01/10 06:58:48;;;;;;;0.30;0.30;;;17.70;61.70;;;;;;5101975;28;20070;-52
2022/01/10 07:01:19;;;;;;;2.47;0.30;;;17.70;61.70;;;;;;5102502;28;20058;-55
2022/01/10 07:03:45;;;;;;;0.20;0.20;;;17.70;61.90;;;;;;5103033;28;20126;-55
2022/01/10 07:06:11;;;;;;;0.30;0.20;;;17.60;61.80;;;;;;5102658;28;20024;-52
2022/01/10 07:08:37;;;;;;;0.30;0.20;;;17.60;61.80;;;;;;5102904;28;20028;-54
2022/01/10 07:11:03;;;;;;;0.20;0.20;;;17.60;61.80;;;;;;5102776;28;20042;-56
2022/01/10 07:13:29;;;;;;;0.38;0.30;;;17.60;61.80;;;;;;5102876;28;20099;-54
2022/01/10 07:15:55;;;;;;;0.20;0.20;;;17.50;61.70;;;;;;5102488;28;20139;-53
2022/01/10 07:18:21;;;;;;;0.38;0.20;;;17.50;61.80;;;;;;5102671;28;20020;-54
2022/01/10 07:20:47;;;;;;;0.50;0.30;;;17.50;61.70;;;;;;5102962;28;20035;-52
2022/01/10 07:23:13;;;;;;;0.22;0.22;;;17.50;61.70;;;;;;5102888;28;20047;-54
2022/01/10 07:25:40;;;;;;;0.13;0.13;;;17.50;61.60;;;;;;5102235;28;20017;-55
2022/01/10 07:28:06;;;;;;;0.13;0.10;;;17.60;61.70;;;;;;5102312;28;20042;-55
2022/01/10 07:30:32;;;;;;;0.15;0.15;;;17.60;61.70;;;;;;5102867;28;20043;-53
2022/01/10 07:32:58;;;;;;;1.65;0.20;;;17.60;61.60;;;;;;5102745;28;20753;-55
2022/01/10 07:35:24;;;;;;;0.20;0.20;;;17.60;61.60;;;;;;5102602;28;20040;-54
2022/01/10 07:37:50;;;;;;;0.20;0.20;;;17.60;61.60;;;;;;5102706;28;20027;-55
2022/01/10 07:40:16;;;;;;;0.10;0.10;;;17.60;61.60;;;;;;5102666;28;20028;-54
2022/01/10 07:42:42;;;;;;;0.20;0.20;;;17.50;62.40;;;;;;5102504;28;20032;-55
2022/01/10 07:45:09;;;;;;;0.40;0.25;;;17.50;61.60;;;;;;5102525;28;20040;-56
2022/01/10 07:47:35;;;;;;;0.20;0.20;;;17.50;61.60;;;;;;5102314;28;20035;-53
2022/01/10 07:50:02;;;;;;;0.20;0.20;;;17.50;61.50;;;;;;5106476;28;20024;-55
2022/01/10 07:52:29;;;;;;;0.20;0.20;;;17.50;61.50;;;;;;5106762;28;20024;-55
2022/01/10 07:54:56;;;;;;;0.10;0.10;;;17.60;61.50;;;;;;5106599;28;20032;-55
2022/01/10 07:57:22;;;;;;;0.20;0.13;;;17.60;61.40;;;;;;5106329;28;20031;-54
2022/01/10 07:59:48;;;;;;;0.30;0.20;;;17.60;61.40;;;;;;5105174;28;20039;-55
2022/01/10 08:02:15;;;;;;;0.28;0.10;;;17.60;61.30;;;;;;5106542;28;20028;-56
2022/01/10 08:04:41;;;;;;;;;;;17.50;61.20;;;;;;5106743;28;20040;-54
2022/01/10 08:07:07;;;;;;;0.20;0.10;;;17.50;61.30;;;;;;5106161;28;19911;-56
2022/01/10 08:09:33;;;;;;;0.65;0.20;;;17.50;61.30;;;;;;5105746;28;20062;-55
2022/01/10 08:11:59;;;;;;;0.20;0.20;;;17.40;61.30;;;;;;5106086;28;20028;-55
2022/01/10 08:14:28;;;;;;;0.85;0.20;;;17.40;61.30;;;;;;5106032;28;20031;-55
2022/01/10 08:16:54;;;;;;;0.57;0.30;;;17.50;61.40;;;;;;5105493;28;20040;-56
2022/01/10 08:19:20;;;;;;;0.32;0.10;;;17.50;61.30;;;;;;5106023;28;20032;-55
2022/01/10 08:21:46;;;;;;;0.20;0.20;;;17.60;61.30;;;;;;5106038;28;20036;-54
2022/01/10 08:24:12;;;;;;;0.22;0.20;;;17.60;61.20;;;;;;5104425;28;20040;-54
2022/01/10 08:26:40;;;;;;;0.30;0.20;;;17.60;61.20;;;;;;5105576;28;20073;-56
2022/01/10 08:29:06;;;;;;;0.20;0.20;;;17.50;61.10;;;;;;5095641;28;20036;-56
2022/01/10 08:31:33;;;;;;;0.30;0.20;;;17.50;61.10;;;;;;5085568;28;20036;-55
2022/01/10 08:34:04;;;;;;;0.20;0.20;;;17.40;61.10;;;;;;5085585;28;20033;-54
2022/01/10 08:36:30;;;;;;;0.95;0.20;;;17.40;61.20;;;;;;5085396;28;20045;-52
2022/01/10 08:38:56;;;;;;;0.20;0.20;;;17.40;61.10;;;;;;5085426;28;20132;-56
2022/01/10 08:41:23;;;;;;;0.10;0.10;;;17.50;61.20;;;;;;5094919;28;20143;-55
2022/01/10 08:43:49;;;;;;;0.22;0.13;;;17.60;61.30;;;;;;5105310;28;20032;-55
2022/01/10 08:46:15;;;;;;;0.45;0.30;;;17.60;61.10;;;;;;5105548;28;20024;-55
2022/01/10 08:48:41;;;;;;;0.20;0.10;;;17.50;61.00;;;;;;5105068;28;20020;-56
2022/01/10 08:51:07;;;;;;;0.20;0.20;;;17.50;61.00;;;;;;5105151;28;20080;-55
2022/01/10 08:53:34;;;;;;;0.20;0.20;;;17.50;61.00;;;;;;5105400;28;20028;-55
2022/01/10 08:56:00;;;;;;;0.57;0.20;;;17.40;61.00;;;;;;5103873;28;20027;-57
2022/01/10 08:58:32;;;;;;;1.00;0.20;;;17.40;61.00;;;;;;5103492;28;20030;-55
2022/01/10 09:01:08;;;;;;;0.10;0.10;;;17.40;61.00;;;;;;5104833;28;20052;-56
2022/01/10 09:03:34;;;;;;;0.22;0.20;;;17.50;61.10;;;;;;5104963;28;20035;-56
2022/01/10 09:06:00;;;;;;;0.20;0.20;;;17.60;61.10;;;;;;5105349;28;20028;-56
2022/01/10 09:08:31;;;;;;;0.20;0.20;;;17.50;61.00;;;;;;5104771;28;20878;-55
2022/01/10 09:10:58;;;;;;;0.10;0.10;;;17.50;60.90;;;;;;5104997;28;20040;-55
2022/01/10 09:13:24;;;;;;;0.30;0.27;;;17.50;60.90;;;;;;5104975;28;20035;-56
2022/01/10 09:15:50;;;;;;;0.38;0.20;;;17.40;60.90;;;;;;5105054;28;20275;-53
2022/01/10 09:18:16;;;;;;;0.45;0.20;;;17.40;60.90;;;;;;5104585;28;20035;-56
2022/01/10 09:20:43;;;;;;;0.20;0.20;;;17.40;61.00;;;;;;5104783;28;20048;-56
2022/01/10 09:23:10;;;;;;;0.13;0.10;;;17.40;61.00;;;;;;5104293;28;20284;-56
2022/01/10 09:25:36;;;;;;;0.70;0.20;;;17.50;61.10;;;;;;5104501;28;20067;-54
2022/01/10 09:28:02;;;;;;;0.10;0.10;;;17.50;60.90;;;;;;5102939;28;20020;-52
2022/01/10 09:30:28;;;;;;;0.25;0.20;;;17.50;60.80;;;;;;5104517;28;20115;-54
2022/01/10 09:32:54;;;;;;;0.15;0.15;;;17.50;60.80;;;;;;5104228;28;20114;-55
2022/01/10 09:35:22;;;;;;;0.30;0.30;;;17.40;60.80;;;;;;5104174;28;20028;-56
2022/01/10 09:37:48;;;;;;;0.10;0.10;;;17.40;60.80;;;;;;5104453;28;20028;-55
2022/01/10 09:40:14;;;;;;;0.20;0.20;;;17.30;60.80;;;;;;5104443;28;20028;-56
2022/01/10 09:42:41;;;;;;;0.35;0.20;;;17.40;60.90;;;;;;5102903;28;20028;-56
2022/01/10 09:45:08;;;;;;;0.10;0.10;;;17.50;61.00;;;;;;5104074;28;20084;-55
2022/01/10 09:47:34;;;;;;;0.30;0.20;;;17.50;60.90;;;;;;5104156;28;20032;-56
2022/01/10 09:50:00;;;;;;;0.10;0.10;;;17.50;60.80;;;;;;5104294;28;20111;-53
2022/01/10 09:52:26;;;;;;;0.30;0.30;;;17.50;60.70;;;;;;5104048;28;20024;-56
2022/01/10 09:54:53;;;;;;;0.32;0.30;;;17.40;60.70;;;;;;5104293;28;20028;-56
2022/01/10 09:57:22;;;;;;;0.20;0.20;;;17.40;60.70;;;;;;5104110;28;20024;-54
2022/01/10 09:59:48;;;;;;;1.23;0.30;;;17.30;60.70;;;;;;5101622;28;20039;-55
2022/01/10 10:02:15;;;;;;;0.20;0.20;;;17.40;60.70;;;;;;5104104;28;20031;-55
2022/01/10 10:04:41;;;;;;;0.10;0.10;;;17.40;60.80;;;;;;5103968;28;20064;-54
2022/01/10 10:07:07;;;;;;;0.20;0.20;;;17.50;60.80;;;;;;5103983;28;20047;-56
2022/01/10 10:09:34;;;;;;;0.95;0.20;;;17.50;60.60;;;;;;5103724;28;20051;-57
2022/01/10 10:12:01;;;;;;;0.40;0.20;;;17.50;60.50;;;;;;5102851;28;20114;-56
2022/01/10 10:14:27;;;;;;;0.50;0.30;;;17.40;60.50;;;;;;5103503;28;20035;-55
2022/01/10 10:16:56;;;;;;;0.20;0.20;;;17.40;60.50;;;;;;5103538;28;20499;-55
2022/01/10 10:19:27;;;;;;;0.20;0.20;;;17.30;60.60;;;;;;5103368;28;20083;-55
2022/01/10 10:21:54;;;;;;;0.20;0.20;;;17.30;60.70;;;;;;5103623;28;20024;-56
2022/01/10 10:24:20;;;;;;;0.13;0.13;;;17.40;60.70;;;;;;5103418;28;20113;-55
2022/01/10 10:26:46;;;;;;;0.10;0.10;;;17.50;60.70;;;;;;5103753;28;20028;-55
2022/01/10 10:29:17;;;;;;;0.47;0.30;;;17.50;60.50;;;;;;5092962;28;20060;-55
2022/01/10 10:32:04;;;;;;;0.10;0.10;;;17.50;60.30;;;;;;5083159;28;20043;-55
2022/01/10 10:34:31;;;;;;;0.20;0.20;;;17.50;60.30;;;;;;5083236;28;20378;-56
2022/01/10 10:37:05;;;;;;;0.20;0.20;;;17.40;60.30;;;;;;5083430;28;20024;-56
2022/01/10 10:39:33;;;;;;;0.13;0.13;;;17.30;60.30;;;;;;5082838;28;20104;-55
2022/01/10 10:42:04;;;;;;;0.10;0.10;;;17.30;60.30;;;;;;5096359;28;20028;-56
2022/01/10 10:44:30;;;;;;;0.20;0.20;;;17.30;60.30;;;;;;5103139;28;20051;-56
2022/01/10 10:46:56;;;;;;;0.30;0.20;;;17.40;60.40;;;;;;5103195;28;20028;-56
2022/01/10 10:49:32;;;;;;;0.20;0.20;;;17.50;60.40;;;;;;5103024;28;20031;-56
2022/01/10 10:52:00;;;;;;;0.40;0.20;;;17.50;60.20;;;;;;5102985;28;20466;-55
2022/01/10 10:54:31;;;;;;;0.20;0.20;;;17.50;60.10;;;;;;5103030;28;20032;-56
2022/01/10 10:57:01;;;;;;;0.15;0.15;;;17.40;60.10;;;;;;5103066;28;20035;-56
2022/01/10 10:59:32;;;;;;;0.20;0.20;;;17.30;60.10;;;;;;5101632;28;20519;-54
2022/01/10 11:01:58;;;;;;;0.10;0.10;;;17.30;60.10;;;;;;5102903;28;20036;-56
2022/01/10 11:04:24;;;;;;;0.20;0.13;;;17.30;60.20;;;;;;5102901;28;20042;-55
2022/01/10 11:06:51;;;;;;;0.30;0.20;;;17.40;60.20;;;;;;5103122;28;20028;-55
2022/01/10 11:09:18;;;;;;;0.20;0.10;;;17.40;60.00;;;;;;5102600;28;20059;-56
2022/01/10 11:11:44;;;;;;;0.10;0.10;;;17.40;59.80;;;;;;5102810;28;20043;-56
2022/01/10 11:14:13;;;;;;;0.10;0.10;;;17.40;59.80;;;;;;5102716;28;20032;-54
2022/01/10 11:16:40;;;;;;;0.20;0.20;;;17.30;59.90;;;;;;5100983;28;20025;-55
2022/01/10 11:19:12;;;;;;;0.25;0.25;;;17.30;60.00;;;;;;5100490;28;20028;-57
2022/01/10 11:21:40;;;;;;;1.15;0.30;;;17.30;60.10;;;;;;5102706;28;20037;-53
2022/01/10 11:24:06;;;;;;;0.15;0.15;;;17.30;60.10;;;;;;5106291;28;20558;-57
2022/01/10 11:26:39;;;;;;;0.15;0.15;;;17.40;60.00;;;;;;5107150;28;20029;-55
2022/01/10 11:29:09;;;;;;;0.10;0.10;;;17.40;59.90;;;;;;5095912;28;20024;-57
2022/01/10 11:31:37;;;;;;;1.05;0.20;;;17.40;59.80;;;;;;5086706;28;20029;-56
2022/01/10 11:34:03;;;;;;;0.20;0.20;;;17.40;59.90;;;;;;5086498;28;20033;-56
2022/01/10 11:36:29;;;;;;;0.17;0.10;;;17.30;59.80;;;;;;5088581;28;20017;-56
2022/01/10 11:39:00;;;;;;;0.60;0.20;;;17.30;59.80;;;;;;5106539;28;20032;-54
2022/01/10 11:41:31;;;;;;;0.20;0.20;;;17.20;59.90;;;;;;5106602;28;20077;-56
2022/01/10 11:44:09;;;;;;;0.38;0.20;;;17.30;60.00;;;;;;5106267;28;20051;-55
2022/01/10 11:46:36;;;;;;;;;;;17.40;60.00;;;;;;5106979;28;20028;-57
2022/01/10 11:49:23;;;;;;;0.15;0.15;;;17.40;60.00;;;;;;5106523;28;19914;-55
2022/01/10 11:51:51;;;;;;;0.20;0.20;;;17.40;59.70;;;;;;5106267;28;20024;-55
2022/01/10 11:54:29;;;;;;;0.43;0.20;;;17.40;59.70;;;;;;5106486;28;20027;-55
2022/01/10 11:56:57;;;;;;;0.25;0.20;;;17.30;59.70;;;;;;5106580;28;20076;-56
2022/01/10 11:59:30;;;;;;;0.57;0.20;;;17.30;59.80;;;;;;5105139;28;20036;-55
2022/01/10 12:02:03;;;;;;;0.20;0.20;;;17.30;59.90;;;;;;5121026;28;20024;-57
2022/01/10 12:04:34;;;;;;;0.22;0.20;;;17.30;59.90;;;;;;5106005;28;20051;-57
2022/01/10 12:07:01;;;;;;;0.20;0.20;;;17.40;59.90;;;;;;5106257;28;20024;-57
2022/01/10 12:09:28;;;;;;;0.22;0.22;;;17.40;59.70;;;;;;5105981;28;20072;-59
2022/01/10 12:11:56;;;;;;;0.20;0.20;;;17.40;59.60;;;;;;5105545;28;20032;-56
2022/01/10 12:14:22;;;;;;;0.20;0.20;;;17.30;59.60;;;;;;5105974;28;20052;-57
2022/01/10 12:16:49;;;;;;;0.10;0.10;;;17.30;59.60;;;;;;5105912;28;20024;-55
2022/01/10 12:19:16;;;;;;;0.40;0.27;;;17.20;59.70;;;;;;5105959;28;20035;-56
2022/01/10 12:21:42;;;;;;;0.30;0.20;;;17.30;59.80;;;;;;5105688;28;20288;-58
2022/01/10 12:24:08;;;;;;;0.20;0.20;;;17.30;59.70;;;;;;5105700;28;20074;-57
2022/01/10 12:26:34;;;;;;;0.30;0.20;;;17.40;59.70;;;;;;5105881;28;20021;-56
2022/01/10 12:29:01;;;;;;;0.22;0.20;;;17.40;59.60;;;;;;5097098;28;20024;-55
2022/01/10 12:31:29;;;;;;;0.10;0.10;;;17.40;59.50;;;;;;5085113;28;20048;-57
2022/01/10 12:33:56;;;;;;;1.98;0.25;;;17.40;59.50;;;;;;5083029;28;20525;-55
2022/01/10 12:36:22;;;;;;;0.15;0.15;;;17.30;59.50;;;;;;5085579;28;20047;-55
2022/01/10 12:38:53;;;;;;;0.35;0.30;;;17.20;59.60;;;;;;5085516;28;20032;-55
2022/01/10 12:41:20;;;;;;;0.20;0.20;;;17.20;59.60;;;;;;5094028;28;20088;-56
2022/01/10 12:43:49;;;;;;;0.15;0.10;;;17.30;59.60;;;;;;5105336;28;20067;-57
2022/01/10 12:46:18;;;;;;;0.20;0.20;;;17.40;59.50;;;;;;5105485;28;20028;-57
2022/01/10 12:48:48;;;;;;;0.35;0.20;;;17.40;59.50;;;;;;5105398;28;20028;-56
2022/01/10 12:51:15;;;;;;;0.40;0.30;;;17.40;59.30;;;;;;5103886;28;20032;-56
2022/01/10 12:53:47;;;;;;;0.23;0.20;;;17.30;59.30;;;;;;5105167;28;20039;-56